sensor_id;sensor_type;location;lat;lon;timestamp;P1;durP1;ratioP1;P2;durP2;ratioP2
43606;SDS011;29197;44.788;10.366;2022-07-10T11:28:12;0.60;;;0.60;;
43606;SDS011;29197;44.788;10.366;2022-07-10T11:31:02;1.85;;;0.60;;
43606;SDS011;29197;44.788;10.366;2022-07-10T11:33:55;4.30;;;0.60;;
43606;SDS011;29197;44.788;10.366;2022-07-10T11:36:44;1.83;;;0.60;;
43606;SDS011;29197;44.788;10.366;2022-07-10T11:39:36;0.80;;;0.70;;
43606;SDS011;29197;44.788;10.366;2022-07-10T11:42:26;3.75;;;1.55;;
43606;SDS011;29197;44.788;10.366;2022-07-10T11:45:29;1.23;;;0.70;;
43606;SDS011;29197;44.788;10.366;2022-07-10T11:48:20;1.13;;;0.60;;
43606;SDS011;29197;44.788;10.366;2022-07-10T11:51:17;1.13;;;0.60;;
43606;SDS011;29197;44.788;10.366;2022-07-10T11:54:06;2.05;;;0.70;;
43606;SDS011;29197;44.788;10.366;2022-07-10T11:57:04;0.95;;;0.45;;
43606;SDS011;29197;44.788;10.366;2022-07-10T11:59:55;0.47;;;0.47;;
43606;SDS011;29197;44.788;10.366;2022-07-10T12:02:46;1.80;;;0.68;;
43606;SDS011;29197;44.788;10.366;2022-07-10T12:05:36;0.55;;;0.50;;
43606;SDS011;29197;44.788;10.366;2022-07-10T12:08:27;1.58;;;0.73;;
43606;SDS011;29197;44.788;10.366;2022-07-10T12:11:16;0.30;;;0.30;;
43606;SDS011;29197;44.788;10.366;2022-07-10T12:14:11;0.50;;;0.50;;
43606;SDS011;29197;44.788;10.366;2022-07-10T12:17:03;2.40;;;0.60;;
43606;SDS011;29197;44.788;10.366;2022-07-10T12:20:01;0.85;;;0.47;;
43606;SDS011;29197;44.788;10.366;2022-07-10T12:22:51;0.93;;;0.50;;
43606;SDS011;29197;44.788;10.366;2022-07-10T12:25:41;2.53;;;0.63;;
43606;SDS011;29197;44.788;10.366;2022-07-10T12:28:31;1.05;;;0.50;;
43606;SDS011;29197;44.788;10.366;2022-07-10T12:31:37;4.57;;;0.77;;
43606;SDS011;29197;44.788;10.366;2022-07-10T12:34:32;1.20;;;0.47;;
43606;SDS011;29197;44.788;10.366;2022-07-10T12:37:24;2.15;;;0.60;;
43606;SDS011;29197;44.788;10.366;2022-07-10T12:43:26;0.95;;;0.70;;
43606;SDS011;29197;44.788;10.366;2022-07-10T12:46:17;0.90;;;0.70;;
43606;SDS011;29197;44.788;10.366;2022-07-10T12:49:14;1.27;;;0.63;;
43606;SDS011;29197;44.788;10.366;2022-07-10T12:52:03;0.82;;;0.30;;
43606;SDS011;29197;44.788;10.366;2022-07-10T12:55:10;0.60;;;0.55;;
43606;SDS011;29197;44.788;10.366;2022-07-10T12:58:04;1.27;;;0.52;;
43606;SDS011;29197;44.788;10.366;2022-07-10T13:00:56;1.95;;;0.60;;
43606;SDS011;29197;44.788;10.366;2022-07-10T13:03:45;3.75;;;0.60;;
43606;SDS011;29197;44.788;10.366;2022-07-10T13:06:35;1.40;;;0.63;;
43606;SDS011;29197;44.788;10.366;2022-07-10T13:09:25;0.98;;;0.50;;
43606;SDS011;29197;44.788;10.366;2022-07-10T13:12:16;1.08;;;0.68;;
43606;SDS011;29197;44.788;10.366;2022-07-10T13:15:06;0.65;;;0.65;;
43606;SDS011;29197;44.788;10.366;2022-07-10T13:17:56;0.45;;;0.30;;
43606;SDS011;29197;44.788;10.366;2022-07-10T13:20:45;0.50;;;0.50;;
43606;SDS011;29197;44.788;10.366;2022-07-10T13:23:35;2.45;;;0.55;;
43606;SDS011;29197;44.788;10.366;2022-07-10T13:26:24;1.98;;;0.73;;
43606;SDS011;29197;44.788;10.366;2022-07-10T13:29:16;1.05;;;0.60;;
43606;SDS011;29197;44.788;10.366;2022-07-10T13:32:05;0.40;;;0.38;;
43606;SDS011;29197;44.788;10.366;2022-07-10T13:34:55;1.23;;;0.60;;
43606;SDS011;29197;44.788;10.366;2022-07-10T13:37:45;0.65;;;0.50;;
43606;SDS011;29197;44.788;10.366;2022-07-10T13:40:35;0.90;;;0.60;;
43606;SDS011;29197;44.788;10.366;2022-07-10T13:43:25;0.43;;;0.43;;
43606;SDS011;29197;44.788;10.366;2022-07-10T13:46:17;7.13;;;0.80;;
43606;SDS011;29197;44.788;10.366;2022-07-10T13:49:06;0.60;;;0.35;;
43606;SDS011;29197;44.788;10.366;2022-07-10T13:51:56;1.23;;;0.70;;
43606;SDS011;29197;44.788;10.366;2022-07-10T13:54:45;0.57;;;0.50;;
43606;SDS011;29197;44.788;10.366;2022-07-10T13:57:34;1.92;;;0.60;;
43606;SDS011;29197;44.788;10.366;2022-07-10T14:00:24;0.40;;;0.40;;
43606;SDS011;29197;44.788;10.366;2022-07-10T14:03:15;0.60;;;0.60;;
43606;SDS011;29197;44.788;10.366;2022-07-10T14:06:04;0.55;;;0.50;;
43606;SDS011;29197;44.788;10.366;2022-07-10T14:08:54;1.20;;;0.80;;
43606;SDS011;29197;44.788;10.366;2022-07-10T14:11:43;0.77;;;0.45;;
43606;SDS011;29197;44.788;10.366;2022-07-10T14:14:32;1.38;;;0.85;;
43606;SDS011;29197;44.788;10.366;2022-07-10T14:17:21;0.50;;;0.43;;
43606;SDS011;29197;44.788;10.366;2022-07-10T14:20:13;0.90;;;0.55;;
43606;SDS011;29197;44.788;10.366;2022-07-10T14:23:02;0.30;;;0.30;;
43606;SDS011;29197;44.788;10.366;2022-07-10T14:25:52;0.68;;;0.60;;
43606;SDS011;29197;44.788;10.366;2022-07-10T14:28:42;1.77;;;0.50;;
43606;SDS011;29197;44.788;10.366;2022-07-10T14:31:32;0.57;;;0.47;;
43606;SDS011;29197;44.788;10.366;2022-07-10T14:34:21;0.45;;;0.40;;
43606;SDS011;29197;44.788;10.366;2022-07-10T14:37:12;1.52;;;0.77;;
43606;SDS011;29197;44.788;10.366;2022-07-10T14:40:02;0.95;;;0.63;;
43606;SDS011;29197;44.788;10.366;2022-07-10T14:42:51;2.78;;;0.60;;
43606;SDS011;29197;44.788;10.366;2022-07-10T14:45:43;2.15;;;0.60;;
43606;SDS011;29197;44.788;10.366;2022-07-10T14:48:41;0.50;;;0.50;;
43606;SDS011;29197;44.788;10.366;2022-07-10T14:51:31;1.55;;;0.60;;
43606;SDS011;29197;44.788;10.366;2022-07-10T14:54:23;1.00;;;0.70;;
43606;SDS011;29197;44.788;10.366;2022-07-10T14:57:13;0.90;;;0.63;;
43606;SDS011;29197;44.788;10.366;2022-07-10T15:00:02;0.50;;;0.50;;
43606;SDS011;29197;44.788;10.366;2022-07-10T15:02:51;1.05;;;0.70;;
43606;SDS011;29197;44.788;10.366;2022-07-10T15:05:49;0.95;;;0.45;;
43606;SDS011;29197;44.788;10.366;2022-07-10T15:08:40;2.00;;;0.85;;
43606;SDS011;29197;44.788;10.366;2022-07-10T15:11:32;0.50;;;0.50;;
43606;SDS011;29197;44.788;10.366;2022-07-10T15:14:22;0.65;;;0.65;;
43606;SDS011;29197;44.788;10.366;2022-07-10T15:17:12;1.33;;;0.60;;
43606;SDS011;29197;44.788;10.366;2022-07-10T15:20:02;0.77;;;0.50;;
43606;SDS011;29197;44.788;10.366;2022-07-10T15:22:51;1.65;;;0.52;;
43606;SDS011;29197;44.788;10.366;2022-07-10T15:25:40;0.52;;;0.52;;
43606;SDS011;29197;44.788;10.366;2022-07-10T15:28:31;0.95;;;0.68;;
43606;SDS011;29197;44.788;10.366;2022-07-10T15:31:20;3.55;;;0.52;;
43606;SDS011;29197;44.788;10.366;2022-07-10T15:34:10;0.50;;;0.50;;
43606;SDS011;29197;44.788;10.366;2022-07-10T15:37:01;0.57;;;0.50;;
43606;SDS011;29197;44.788;10.366;2022-07-10T15:39:50;0.60;;;0.50;;
43606;SDS011;29197;44.788;10.366;2022-07-10T15:42:40;0.38;;;0.32;;
43606;SDS011;29197;44.788;10.366;2022-07-10T15:45:30;0.40;;;0.40;;
43606;SDS011;29197;44.788;10.366;2022-07-10T15:48:19;0.73;;;0.50;;
43606;SDS011;29197;44.788;10.366;2022-07-10T15:51:08;0.82;;;0.70;;
43606;SDS011;29197;44.788;10.366;2022-07-10T15:53:58;1.48;;;0.63;;
43606;SDS011;29197;44.788;10.366;2022-07-10T15:56:47;1.10;;;0.50;;
43606;SDS011;29197;44.788;10.366;2022-07-10T15:59:36;0.73;;;0.60;;
43606;SDS011;29197;44.788;10.366;2022-07-10T16:02:29;1.38;;;0.68;;
43606;SDS011;29197;44.788;10.366;2022-07-10T16:05:18;0.98;;;0.52;;
43606;SDS011;29197;44.788;10.366;2022-07-10T16:08:07;0.50;;;0.50;;
43606;SDS011;29197;44.788;10.366;2022-07-10T16:10:56;0.50;;;0.50;;
43606;SDS011;29197;44.788;10.366;2022-07-10T16:13:45;0.40;;;0.30;;
43606;SDS011;29197;44.788;10.366;2022-07-10T16:16:34;0.45;;;0.45;;
43606;SDS011;29197;44.788;10.366;2022-07-10T16:19:25;0.43;;;0.20;;
43606;SDS011;29197;44.788;10.366;2022-07-10T16:22:14;0.40;;;0.40;;
43606;SDS011;29197;44.788;10.366;2022-07-10T16:25:04;1.70;;;0.40;;
43606;SDS011;29197;44.788;10.366;2022-07-10T16:28:11;0.55;;;0.40;;
43606;SDS011;29197;44.788;10.366;2022-07-10T16:31:01;0.82;;;0.52;;
43606;SDS011;29197;44.788;10.366;2022-07-10T16:33:50;1.38;;;0.55;;
43606;SDS011;29197;44.788;10.366;2022-07-10T16:36:41;2.85;;;0.50;;
43606;SDS011;29197;44.788;10.366;2022-07-10T16:39:31;0.75;;;0.40;;
43606;SDS011;29197;44.788;10.366;2022-07-10T16:42:21;2.22;;;0.60;;
43606;SDS011;29197;44.788;10.366;2022-07-10T16:45:12;0.40;;;0.40;;
43606;SDS011;29197;44.788;10.366;2022-07-10T16:48:01;1.25;;;0.80;;
43606;SDS011;29197;44.788;10.366;2022-07-10T16:50:51;0.68;;;0.40;;
43606;SDS011;29197;44.788;10.366;2022-07-10T16:53:41;0.52;;;0.35;;
43606;SDS011;29197;44.788;10.366;2022-07-10T16:56:51;0.40;;;0.40;;
43606;SDS011;29197;44.788;10.366;2022-07-10T16:59:40;0.40;;;0.30;;
43606;SDS011;29197;44.788;10.366;2022-07-10T17:02:30;0.68;;;0.68;;
43606;SDS011;29197;44.788;10.366;2022-07-10T17:05:19;0.32;;;0.32;;
43606;SDS011;29197;44.788;10.366;2022-07-10T17:08:08;1.58;;;0.50;;
43606;SDS011;29197;44.788;10.366;2022-07-10T17:11:02;2.15;;;0.50;;
43606;SDS011;29197;44.788;10.366;2022-07-10T17:13:51;0.40;;;0.32;;
43606;SDS011;29197;44.788;10.366;2022-07-10T17:16:40;1.08;;;0.55;;
43606;SDS011;29197;44.788;10.366;2022-07-10T17:19:30;1.60;;;0.50;;
43606;SDS011;29197;44.788;10.366;2022-07-10T17:22:19;0.70;;;0.55;;
43606;SDS011;29197;44.788;10.366;2022-07-10T17:25:09;0.50;;;0.40;;
43606;SDS011;29197;44.788;10.366;2022-07-10T17:28:02;0.50;;;0.50;;
43606;SDS011;29197;44.788;10.366;2022-07-10T17:30:52;0.52;;;0.52;;
43606;SDS011;29197;44.788;10.366;2022-07-10T17:33:41;0.75;;;0.60;;
43606;SDS011;29197;44.788;10.366;2022-07-10T17:36:30;0.52;;;0.40;;
43606;SDS011;29197;44.788;10.366;2022-07-10T17:39:19;0.65;;;0.65;;
43606;SDS011;29197;44.788;10.366;2022-07-10T17:42:09;1.20;;;0.60;;
43606;SDS011;29197;44.788;10.366;2022-07-10T17:44:59;0.45;;;0.40;;
43606;SDS011;29197;44.788;10.366;2022-07-10T17:47:49;1.10;;;1.00;;
43606;SDS011;29197;44.788;10.366;2022-07-10T17:50:39;0.60;;;0.60;;
43606;SDS011;29197;44.788;10.366;2022-07-10T17:53:28;1.42;;;0.60;;
43606;SDS011;29197;44.788;10.366;2022-07-10T17:56:18;1.45;;;0.85;;
43606;SDS011;29197;44.788;10.366;2022-07-10T17:59:08;0.70;;;0.60;;
43606;SDS011;29197;44.788;10.366;2022-07-10T18:01:59;2.25;;;0.60;;
43606;SDS011;29197;44.788;10.366;2022-07-10T18:04:48;0.70;;;0.70;;
43606;SDS011;29197;44.788;10.366;2022-07-10T18:07:39;1.27;;;0.60;;
43606;SDS011;29197;44.788;10.366;2022-07-10T18:10:28;0.57;;;0.50;;
43606;SDS011;29197;44.788;10.366;2022-07-10T18:13:18;0.50;;;0.50;;
43606;SDS011;29197;44.788;10.366;2022-07-10T18:16:07;1.15;;;0.65;;
43606;SDS011;29197;44.788;10.366;2022-07-10T18:19:01;1.20;;;1.10;;
43606;SDS011;29197;44.788;10.366;2022-07-10T18:21:50;1.40;;;0.77;;
43606;SDS011;29197;44.788;10.366;2022-07-10T18:24:40;3.53;;;0.95;;
43606;SDS011;29197;44.788;10.366;2022-07-10T18:27:29;1.17;;;0.70;;
43606;SDS011;29197;44.788;10.366;2022-07-10T18:30:18;3.17;;;1.02;;
43606;SDS011;29197;44.788;10.366;2022-07-10T18:33:08;1.35;;;0.93;;
43606;SDS011;29197;44.788;10.366;2022-07-10T18:36:36;0.75;;;0.70;;
43606;SDS011;29197;44.788;10.366;2022-07-10T18:39:26;1.02;;;0.88;;
43606;SDS011;29197;44.788;10.366;2022-07-10T18:42:16;1.48;;;1.20;;
43606;SDS011;29197;44.788;10.366;2022-07-10T18:45:06;4.03;;;1.52;;
43606;SDS011;29197;44.788;10.366;2022-07-10T18:47:57;2.22;;;1.27;;
43606;SDS011;29197;44.788;10.366;2022-07-10T18:50:46;1.80;;;1.10;;
43606;SDS011;29197;44.788;10.366;2022-07-10T18:53:37;1.98;;;1.17;;
43606;SDS011;29197;44.788;10.366;2022-07-10T18:56:27;1.48;;;1.00;;
43606;SDS011;29197;44.788;10.366;2022-07-10T18:59:16;1.38;;;0.95;;
43606;SDS011;29197;44.788;10.366;2022-07-10T19:02:06;1.67;;;1.30;;
43606;SDS011;29197;44.788;10.366;2022-07-10T19:04:55;1.95;;;1.50;;
43606;SDS011;29197;44.788;10.366;2022-07-10T19:07:45;1.45;;;1.20;;
43606;SDS011;29197;44.788;10.366;2022-07-10T19:10:35;1.48;;;1.30;;
43606;SDS011;29197;44.788;10.366;2022-07-10T19:13:25;2.58;;;1.75;;
43606;SDS011;29197;44.788;10.366;2022-07-10T19:16:14;2.10;;;1.30;;
43606;SDS011;29197;44.788;10.366;2022-07-10T19:19:04;3.15;;;2.20;;
43606;SDS011;29197;44.788;10.366;2022-07-10T19:21:53;2.30;;;1.92;;
43606;SDS011;29197;44.788;10.366;2022-07-10T19:24:45;3.45;;;2.22;;
43606;SDS011;29197;44.788;10.366;2022-07-10T19:27:37;2.97;;;2.10;;
43606;SDS011;29197;44.788;10.366;2022-07-10T19:30:26;2.65;;;1.83;;
43606;SDS011;29197;44.788;10.366;2022-07-10T19:33:15;3.20;;;1.80;;
43606;SDS011;29197;44.788;10.366;2022-07-10T19:36:05;3.25;;;1.52;;
43606;SDS011;29197;44.788;10.366;2022-07-10T19:38:55;3.92;;;1.48;;
43606;SDS011;29197;44.788;10.366;2022-07-10T19:41:45;1.67;;;1.20;;
43606;SDS011;29197;44.788;10.366;2022-07-10T19:44:35;3.45;;;2.58;;
43606;SDS011;29197;44.788;10.366;2022-07-10T19:47:24;2.03;;;1.30;;
43606;SDS011;29197;44.788;10.366;2022-07-10T19:50:14;1.48;;;1.13;;
43606;SDS011;29197;44.788;10.366;2022-07-10T19:53:03;1.50;;;1.10;;
43606;SDS011;29197;44.788;10.366;2022-07-10T19:55:53;1.80;;;1.05;;
43606;SDS011;29197;44.788;10.366;2022-07-10T19:58:42;0.77;;;0.77;;
43606;SDS011;29197;44.788;10.366;2022-07-10T20:01:45;1.00;;;0.90;;
43606;SDS011;29197;44.788;10.366;2022-07-10T20:04:49;0.88;;;0.70;;
43606;SDS011;29197;44.788;10.366;2022-07-10T20:07:39;1.35;;;0.80;;
43606;SDS011;29197;44.788;10.366;2022-07-10T20:10:28;1.27;;;0.90;;
43606;SDS011;29197;44.788;10.366;2022-07-10T20:13:18;0.85;;;0.70;;
43606;SDS011;29197;44.788;10.366;2022-07-10T20:16:07;1.52;;;1.10;;
43606;SDS011;29197;44.788;10.366;2022-07-10T20:18:58;1.65;;;1.17;;
43606;SDS011;29197;44.788;10.366;2022-07-10T20:21:47;3.85;;;1.20;;
43606;SDS011;29197;44.788;10.366;2022-07-10T20:24:37;1.70;;;1.30;;
43606;SDS011;29197;44.788;10.366;2022-07-10T20:27:26;1.63;;;0.80;;
43606;SDS011;29197;44.788;10.366;2022-07-10T20:30:15;3.90;;;0.98;;
43606;SDS011;29197;44.788;10.366;2022-07-10T20:33:05;2.78;;;1.10;;
43606;SDS011;29197;44.788;10.366;2022-07-10T20:35:56;2.25;;;1.23;;
43606;SDS011;29197;44.788;10.366;2022-07-10T20:39:02;1.60;;;1.05;;
43606;SDS011;29197;44.788;10.366;2022-07-10T20:41:52;1.65;;;1.00;;
43606;SDS011;29197;44.788;10.366;2022-07-10T20:44:41;1.58;;;1.13;;
43606;SDS011;29197;44.788;10.366;2022-07-10T20:47:30;2.40;;;1.38;;
43606;SDS011;29197;44.788;10.366;2022-07-10T20:50:20;2.08;;;1.10;;
43606;SDS011;29197;44.788;10.366;2022-07-10T20:53:11;2.45;;;0.85;;
43606;SDS011;29197;44.788;10.366;2022-07-10T20:56:00;3.67;;;0.90;;
43606;SDS011;29197;44.788;10.366;2022-07-10T20:58:50;2.20;;;0.77;;
43606;SDS011;29197;44.788;10.366;2022-07-10T21:01:39;2.35;;;1.08;;
43606;SDS011;29197;44.788;10.366;2022-07-10T21:04:29;2.20;;;1.08;;
43606;SDS011;29197;44.788;10.366;2022-07-10T21:07:18;4.15;;;1.13;;
43606;SDS011;29197;44.788;10.366;2022-07-10T21:10:13;4.38;;;1.20;;
43606;SDS011;29197;44.788;10.366;2022-07-10T21:13:24;2.75;;;1.52;;
43606;SDS011;29197;44.788;10.366;2022-07-10T21:16:14;0.95;;;0.88;;
43606;SDS011;29197;44.788;10.366;2022-07-10T21:19:03;1.48;;;0.93;;
43606;SDS011;29197;44.788;10.366;2022-07-10T21:21:53;2.78;;;1.13;;
43606;SDS011;29197;44.788;10.366;2022-07-10T21:24:43;3.70;;;1.38;;
43606;SDS011;29197;44.788;10.366;2022-07-10T21:27:34;1.38;;;1.17;;
43606;SDS011;29197;44.788;10.366;2022-07-10T21:30:23;2.72;;;1.48;;
43606;SDS011;29197;44.788;10.366;2022-07-10T21:33:14;3.30;;;0.90;;
43606;SDS011;29197;44.788;10.366;2022-07-10T21:36:03;4.00;;;1.00;;
43606;SDS011;29197;44.788;10.366;2022-07-10T21:38:53;4.40;;;1.20;;
43606;SDS011;29197;44.788;10.366;2022-07-10T21:41:45;1.40;;;1.23;;
43606;SDS011;29197;44.788;10.366;2022-07-10T21:44:35;2.92;;;1.05;;
43606;SDS011;29197;44.788;10.366;2022-07-10T21:47:24;2.50;;;1.30;;
43606;SDS011;29197;44.788;10.366;2022-07-10T21:50:13;1.25;;;0.93;;
43606;SDS011;29197;44.788;10.366;2022-07-10T21:53:02;3.45;;;1.17;;
43606;SDS011;29197;44.788;10.366;2022-07-10T21:55:52;0.90;;;0.90;;
43606;SDS011;29197;44.788;10.366;2022-07-10T21:58:41;1.80;;;1.10;;
43606;SDS011;29197;44.788;10.366;2022-07-10T22:01:32;2.45;;;1.35;;
43606;SDS011;29197;44.788;10.366;2022-07-10T22:04:22;4.97;;;1.20;;
43606;SDS011;29197;44.788;10.366;2022-07-10T22:07:13;2.63;;;1.20;;
43606;SDS011;29197;44.788;10.366;2022-07-10T22:10:02;1.73;;;1.23;;
43606;SDS011;29197;44.788;10.366;2022-07-10T22:12:52;2.42;;;1.27;;
43606;SDS011;29197;44.788;10.366;2022-07-10T22:15:42;1.20;;;1.10;;
43606;SDS011;29197;44.788;10.366;2022-07-10T22:18:33;2.78;;;1.30;;
43606;SDS011;29197;44.788;10.366;2022-07-10T22:21:23;2.70;;;1.33;;
43606;SDS011;29197;44.788;10.366;2022-07-10T22:24:12;2.35;;;1.38;;
43606;SDS011;29197;44.788;10.366;2022-07-10T22:27:01;5.38;;;1.55;;
43606;SDS011;29197;44.788;10.366;2022-07-10T22:29:51;1.80;;;1.20;;
43606;SDS011;29197;44.788;10.366;2022-07-10T22:32:41;1.50;;;1.17;;
43606;SDS011;29197;44.788;10.366;2022-07-10T22:35:32;2.28;;;1.60;;
43606;SDS011;29197;44.788;10.366;2022-07-10T22:38:22;4.40;;;1.73;;
43606;SDS011;29197;44.788;10.366;2022-07-10T22:41:11;12.48;;;2.15;;
43606;SDS011;29197;44.788;10.366;2022-07-10T22:44:00;1.30;;;1.20;;
43606;SDS011;29197;44.788;10.366;2022-07-10T22:46:50;2.40;;;0.93;;
43606;SDS011;29197;44.788;10.366;2022-07-10T22:49:40;1.67;;;1.25;;
43606;SDS011;29197;44.788;10.366;2022-07-10T22:52:31;1.67;;;1.25;;
43606;SDS011;29197;44.788;10.366;2022-07-10T22:55:21;2.65;;;1.40;;
43606;SDS011;29197;44.788;10.366;2022-07-10T22:58:10;3.20;;;1.10;;
43606;SDS011;29197;44.788;10.366;2022-07-10T23:01:00;5.85;;;1.20;;
43606;SDS011;29197;44.788;10.366;2022-07-10T23:03:50;2.97;;;1.60;;
43606;SDS011;29197;44.788;10.366;2022-07-10T23:06:39;1.58;;;1.13;;
